createdAt,value
2022-08-24T00:00:37.482Z,48.08
2022-08-24T00:03:04.772Z,47.90
2022-08-24T00:05:31.994Z,48.29
2022-08-24T00:07:59.245Z,48.30
2022-08-24T00:10:26.728Z,48.38
2022-08-24T00:12:53.836Z,48.54
2022-08-24T00:15:21.300Z,48.38
2022-08-24T00:17:48.458Z,48.63
2022-08-24T00:20:15.547Z,48.57
2022-08-24T00:22:43.702Z,48.48
2022-08-24T00:25:13.076Z,48.68
2022-08-24T00:27:41.970Z,48.58
2022-08-24T00:30:12.928Z,48.54
2022-08-24T00:32:40.078Z,48.65
2022-08-24T00:35:08.389Z,49.14
2022-08-24T00:40:07.387Z,49.00
2022-08-24T00:42:34.752Z,48.85
2022-08-24T00:45:02.037Z,49.15
2022-08-24T00:47:40.005Z,49.08
2022-08-24T00:50:11.644Z,48.83
2022-08-24T00:53:09.830Z,48.85
2022-08-24T00:55:50.331Z,49.39
2022-08-24T00:58:35.777Z,49.24
2022-08-24T01:01:06.639Z,49.42
2022-08-24T01:03:36.429Z,49.89
2022-08-24T01:06:04.538Z,49.61
2022-08-24T01:08:31.698Z,49.93
2022-08-24T01:11:03.806Z,49.67
2022-08-24T01:13:33.677Z,49.52
2022-08-24T01:16:05.552Z,49.71
2022-08-24T01:18:52.230Z,49.97
2022-08-24T01:21:51.790Z,49.59
2022-08-24T01:24:19.215Z,49.88
2022-08-24T01:26:50.401Z,49.76
2022-08-24T01:29:23.740Z,50.05
2022-08-24T01:31:51.636Z,50.38
2022-08-24T01:34:18.863Z,50.42
2022-08-24T01:36:49.700Z,50.36
2022-08-24T01:39:22.375Z,50.18
2022-08-24T01:41:50.210Z,50.68
2022-08-24T01:44:18.937Z,50.39
2022-08-24T01:46:49.130Z,50.38
2022-08-24T01:49:17.011Z,50.64
2022-08-24T01:51:46.449Z,50.95
2022-08-24T01:54:15.109Z,50.86
2022-08-24T01:56:43.021Z,50.83
2022-08-24T01:59:12.664Z,50.94
2022-08-24T02:01:52.845Z,50.69
2022-08-24T02:04:20.495Z,49.76
2022-08-24T02:06:48.952Z,51.10
2022-08-24T02:09:17.468Z,50.87
2022-08-24T02:11:44.950Z,51.40
2022-08-24T02:14:14.552Z,51.43
2022-08-24T02:16:42.408Z,51.40
2022-08-24T02:19:09.860Z,51.46
2022-08-24T02:21:38.828Z,51.47
2022-08-24T02:24:07.611Z,51.55
2022-08-24T02:26:35.100Z,51.91
2022-08-24T02:29:03.756Z,51.68
2022-08-24T02:31:32.505Z,51.75
2022-08-24T02:34:00.340Z,52.19
2022-08-24T02:36:27.708Z,51.75
2022-08-24T02:38:58.580Z,52.09
2022-08-24T02:41:26.591Z,52.19
2022-08-24T02:43:56.038Z,52.15
2022-08-24T02:46:26.947Z,52.04
2022-08-24T02:49:03.610Z,51.86
2022-08-24T02:51:44.995Z,51.94
2022-08-24T02:54:19.729Z,51.86
2022-08-24T02:56:49.932Z,52.03
2022-08-24T02:59:18.028Z,52.21
2022-08-24T03:01:46.395Z,52.59
2022-08-24T03:04:18.717Z,52.80
2022-08-24T03:06:46.034Z,52.68
2022-08-24T03:09:14.079Z,52.85
2022-08-24T03:11:42.691Z,52.84
2022-08-24T03:14:14.273Z,52.75
2022-08-24T03:16:42.503Z,53.10
2022-08-24T03:19:09.684Z,53.16
2022-08-24T03:21:38.529Z,53.11
2022-08-24T03:24:06.427Z,53.28
2022-08-24T03:26:33.753Z,53.52
2022-08-24T03:29:01.263Z,53.35
2022-08-24T03:31:30.435Z,53.99
2022-08-24T03:33:58.902Z,53.81
2022-08-24T03:36:26.590Z,54.13
2022-08-24T03:38:54.510Z,54.07
2022-08-24T03:41:21.637Z,53.92
2022-08-24T03:43:49.391Z,53.68
2022-08-24T03:46:25.232Z,53.65
2022-08-24T03:48:54.740Z,54.05
2022-08-24T03:51:27.360Z,53.91
2022-08-24T03:53:56.102Z,54.35
2022-08-24T03:56:26.851Z,54.43
2022-08-24T03:58:55.329Z,54.77
2022-08-24T04:01:25.388Z,54.44
2022-08-24T04:03:55.391Z,54.19
2022-08-24T04:06:27.262Z,54.12
2022-08-24T04:08:54.896Z,53.95
2022-08-24T04:11:25.183Z,53.74
2022-08-24T04:13:56.730Z,53.21
2022-08-24T04:16:26.098Z,53.12
2022-08-24T04:19:02.607Z,53.02
2022-08-24T04:21:35.299Z,52.21
2022-08-24T04:24:07.796Z,52.60
2022-08-24T04:26:44.705Z,52.53
2022-08-24T04:29:17.298Z,52.18
2022-08-24T04:31:50.414Z,51.89
2022-08-24T04:34:18.685Z,51.70
2022-08-24T04:36:46.708Z,51.58
2022-08-24T04:39:15.066Z,50.89
2022-08-24T04:42:05.366Z,51.64
2022-08-24T04:44:37.644Z,50.57
2022-08-24T04:47:05.705Z,49.84
2022-08-24T04:49:33.461Z,49.01
2022-08-24T04:52:01.537Z,49.59
2022-08-24T04:54:29.280Z,49.13
2022-08-24T04:57:12.493Z,48.75
2022-08-24T04:59:41.906Z,47.96
2022-08-24T05:02:09.115Z,46.38
2022-08-24T05:04:37.569Z,46.19
2022-08-24T05:07:05.695Z,47.01
2022-08-24T05:09:33.639Z,46.08
2022-08-24T05:12:02.060Z,46.20
2022-08-24T05:14:34.068Z,44.65
2022-08-24T05:17:03.002Z,45.87
2022-08-24T05:19:31.610Z,45.79
2022-08-24T05:22:00.856Z,44.73
2022-08-24T05:24:30.268Z,45.46
2022-08-24T05:26:58.157Z,45.00
2022-08-24T05:29:26.422Z,44.99
2022-08-24T05:31:54.165Z,44.88
2022-08-24T05:34:21.336Z,42.74
2022-08-24T05:36:49.080Z,43.23
2022-08-24T05:39:46.042Z,43.75
2022-08-24T05:42:13.905Z,43.41
2022-08-24T05:44:46.943Z,43.20
2022-08-24T05:47:18.306Z,41.81
2022-08-24T05:49:48.202Z,41.20
2022-08-24T05:52:16.154Z,41.40
2022-08-24T05:54:44.679Z,42.05
2022-08-24T05:57:16.340Z,40.83
2022-08-24T05:59:54.728Z,39.99
2022-08-24T06:02:23.798Z,40.63
2022-08-24T06:04:51.803Z,39.69
2022-08-24T06:07:20.075Z,39.54
2022-08-24T06:09:54.365Z,38.46
2022-08-24T06:12:21.651Z,38.46
2022-08-24T06:14:48.950Z,37.80
2022-08-24T06:17:21.055Z,37.75
2022-08-24T06:19:48.245Z,37.62
2022-08-24T06:22:15.420Z,36.62
2022-08-24T06:25:01.198Z,36.12
2022-08-24T06:27:29.234Z,35.37
2022-08-24T06:30:06.475Z,36.57
2022-08-24T06:32:53.496Z,35.10
2022-08-24T06:35:38.150Z,35.82
2022-08-24T06:38:06.548Z,35.79
2022-08-24T06:40:34.418Z,34.58
2022-08-24T06:43:04.122Z,34.57
2022-08-24T06:45:47.823Z,33.59
2022-08-24T06:48:18.387Z,32.83
2022-08-24T06:50:47.352Z,32.63
2022-08-24T06:53:15.152Z,32.46
2022-08-24T06:56:01.102Z,33.23
2022-08-24T06:58:32.533Z,31.95
2022-08-24T07:01:25.089Z,32.25
2022-08-24T07:03:53.937Z,32.12
2022-08-24T07:06:54.356Z,31.67
2022-08-24T07:09:25.049Z,30.84
2022-08-24T07:11:52.699Z,30.71
2022-08-24T07:14:21.754Z,30.32
2022-08-24T07:16:49.924Z,29.03
2022-08-24T07:19:17.759Z,29.10
2022-08-24T07:21:44.853Z,29.00
2022-08-24T07:24:11.930Z,28.47
2022-08-24T07:26:40.467Z,27.98
2022-08-24T07:29:36.783Z,28.44
2022-08-24T07:32:04.630Z,27.70
2022-08-24T07:34:37.650Z,28.42
2022-08-24T07:37:07.999Z,27.14
2022-08-24T07:39:38.646Z,28.39
2022-08-24T07:42:13.378Z,27.32
2022-08-24T07:44:42.261Z,26.66
2022-08-24T07:47:36.397Z,26.32
2022-08-24T07:49:57.475Z,25.64
2022-08-24T07:52:28.447Z,25.36
2022-08-24T07:54:56.471Z,25.10
2022-08-24T07:57:24.064Z,25.37
2022-08-24T07:59:51.184Z,24.94
2022-08-24T08:02:18.873Z,23.90
2022-08-24T08:04:50.074Z,24.38
2022-08-24T08:07:18.855Z,25.12
2022-08-24T08:09:52.597Z,24.05
2022-08-24T08:12:20.058Z,23.82
2022-08-24T08:14:57.861Z,23.66
2022-08-24T08:17:25.339Z,23.88
2022-08-24T08:19:52.654Z,23.48
2022-08-24T08:22:46.265Z,23.41
2022-08-24T08:25:40.353Z,22.66
2022-08-24T08:28:25.273Z,23.63
2022-08-24T08:31:02.435Z,24.25
2022-08-24T08:33:30.842Z,22.98
2022-08-24T08:36:11.670Z,23.98
2022-08-24T08:38:44.594Z,23.25
2022-08-24T08:41:17.886Z,22.32
2022-08-24T08:47:52.198Z,22.49
2022-08-24T08:50:29.692Z,21.12
2022-08-24T08:53:00.254Z,21.47
2022-08-24T08:55:53.263Z,21.88
2022-08-24T08:58:57.563Z,21.57
2022-08-24T09:02:04.778Z,21.20
2022-08-24T09:04:54.557Z,20.97
2022-08-24T09:08:07.134Z,19.21
2022-08-24T09:11:14.405Z,21.13
2022-08-24T09:13:47.941Z,19.50
2022-08-24T09:16:41.206Z,19.87
2022-08-24T09:19:31.890Z,19.93
2022-08-24T09:22:20.963Z,20.51
2022-08-24T09:24:55.303Z,19.51
2022-08-24T09:27:53.904Z,18.85
2022-08-24T09:30:27.544Z,18.61
2022-08-24T09:33:06.304Z,18.54
2022-08-24T09:35:51.918Z,18.17
2022-08-24T09:38:50.874Z,18.47
2022-08-24T09:41:53.967Z,18.58
2022-08-24T09:44:55.400Z,19.01
2022-08-24T09:47:25.392Z,17.78
2022-08-24T09:50:23.421Z,18.33
2022-08-24T09:53:28.147Z,18.10
2022-08-24T09:56:13.354Z,18.23
2022-08-24T09:58:59.231Z,18.32
2022-08-24T10:01:32.578Z,17.42
2022-08-24T10:04:38.934Z,18.90
2022-08-24T10:07:23.191Z,18.93
2022-08-24T10:10:24.253Z,18.56
2022-08-24T10:13:09.080Z,18.41
2022-08-24T10:15:59.131Z,18.28
2022-08-24T10:18:47.262Z,18.28
2022-08-24T10:21:20.724Z,18.82
2022-08-24T10:23:50.400Z,18.30
2022-08-24T10:26:40.068Z,17.95
2022-08-24T10:29:28.704Z,18.60
2022-08-24T10:32:04.880Z,19.07
2022-08-24T10:34:49.602Z,18.47
2022-08-24T10:37:45.481Z,18.10
2022-08-24T10:40:34.804Z,19.06
2022-08-24T10:43:27.369Z,18.71
2022-08-24T10:46:10.243Z,18.68
2022-08-24T10:49:12.208Z,18.40
2022-08-24T10:51:50.496Z,19.35
2022-08-24T10:54:19.967Z,18.62
2022-08-24T10:57:12.250Z,19.28
2022-08-24T11:00:18.204Z,18.82
2022-08-24T11:03:14.277Z,19.09
2022-08-24T11:05:52.803Z,18.74
2022-08-24T11:08:25.771Z,18.25
2022-08-24T11:11:14.874Z,18.64
2022-08-24T11:13:59.215Z,19.25
2022-08-24T11:16:32.883Z,19.39
2022-08-24T11:19:03.990Z,19.46
2022-08-24T11:21:45.279Z,20.00
2022-08-24T11:24:18.469Z,19.34
2022-08-24T11:26:59.415Z,18.73
2022-08-24T11:29:47.763Z,19.54
2022-08-24T11:32:51.528Z,19.57
2022-08-24T11:35:33.599Z,19.28
2022-08-24T11:38:20.456Z,18.87
2022-08-24T11:41:03.684Z,19.36
2022-08-24T11:43:43.050Z,19.11
2022-08-24T11:46:51.604Z,19.09
2022-08-24T11:49:58.993Z,19.33
2022-08-24T11:52:25.927Z,18.74
2022-08-24T11:55:05.363Z,18.66
2022-08-24T11:57:48.111Z,18.50
2022-08-24T12:00:21.444Z,18.41
2022-08-24T12:03:22.156Z,18.09
2022-08-24T12:06:19.123Z,18.39
2022-08-24T12:08:55.141Z,17.99
2022-08-24T12:11:45.248Z,17.76
2022-08-24T12:14:32.077Z,18.20
2022-08-24T12:17:21.732Z,18.26
2022-08-24T12:19:53.351Z,17.72
2022-08-24T12:22:22.235Z,17.97
2022-08-24T12:24:55.700Z,17.90
2022-08-24T12:27:27.397Z,17.67
2022-08-24T12:30:15.486Z,18.04
2022-08-24T12:32:58.060Z,18.06
2022-08-24T12:35:31.983Z,17.61
2022-08-24T12:38:22.202Z,17.28
2022-08-24T12:41:17.931Z,17.48
2022-08-24T12:44:01.336Z,17.79
2022-08-24T12:46:28.670Z,17.34
2022-08-24T12:49:19.492Z,17.74
2022-08-24T12:52:18.807Z,18.08
2022-08-24T12:55:13.699Z,17.50
2022-08-24T12:58:31.622Z,17.90
2022-08-24T13:01:06.415Z,17.63
2022-08-24T13:03:35.873Z,18.53
2022-08-24T13:06:09.186Z,17.78
2022-08-24T13:08:46.994Z,17.98
2022-08-24T13:11:33.435Z,18.04
2022-08-24T13:14:12.790Z,17.87
2022-08-24T13:16:58.255Z,18.33
2022-08-24T13:19:34.253Z,18.81
2022-08-24T13:22:10.222Z,18.77
2022-08-24T13:24:40.329Z,18.05
2022-08-24T13:27:13.421Z,18.33
2022-08-24T13:30:33.668Z,18.75
2022-08-24T13:33:08.948Z,19.23
2022-08-24T13:35:41.965Z,19.19
2022-08-24T13:38:24.181Z,19.32
2022-08-24T13:41:03.876Z,19.66
2022-08-24T13:43:39.541Z,18.72
2022-08-24T13:46:45.137Z,19.05
2022-08-24T13:49:15.246Z,19.23
2022-08-24T13:51:45.095Z,19.04
2022-08-24T13:54:30.339Z,19.57
2022-08-24T13:57:08.379Z,19.45
2022-08-24T13:59:35.588Z,19.39
2022-08-24T14:02:14.705Z,19.53
2022-08-24T14:04:56.466Z,19.36
2022-08-24T14:07:53.198Z,19.95
2022-08-24T14:10:42.421Z,19.67
2022-08-24T14:14:01.239Z,19.61
2022-08-24T14:16:55.928Z,19.96
2022-08-24T14:19:25.661Z,19.33
2022-08-24T14:22:18.040Z,19.65
2022-08-24T14:24:55.128Z,19.85
2022-08-24T14:27:40.164Z,19.85
2022-08-24T14:30:19.387Z,19.69
2022-08-24T14:33:01.685Z,19.85
2022-08-24T14:35:34.436Z,19.51
2022-08-24T14:38:12.932Z,19.65
2022-08-24T14:40:51.897Z,19.34
2022-08-24T14:43:39.230Z,19.19
2022-08-24T14:46:06.550Z,19.19
2022-08-24T14:48:39.893Z,19.52
2022-08-24T14:51:29.348Z,19.87
2022-08-24T14:54:05.485Z,19.73
2022-08-24T14:57:07.185Z,19.39
2022-08-24T15:00:14.381Z,20.42
2022-08-24T15:03:15.694Z,21.08
2022-08-24T15:06:25.643Z,20.71
2022-08-24T15:08:53.366Z,21.65
2022-08-24T15:11:28.751Z,21.16
2022-08-24T15:14:02.263Z,20.23
2022-08-24T15:16:49.001Z,22.23
2022-08-24T15:19:34.732Z,22.63
2022-08-24T15:22:04.028Z,22.92
2022-08-24T15:24:48.215Z,21.61
2022-08-24T15:27:47.357Z,22.13
2022-08-24T15:30:27.527Z,20.93
2022-08-24T15:33:14.117Z,22.15
2022-08-24T15:35:45.349Z,22.84
2022-08-24T15:38:24.950Z,21.70
2022-08-24T15:41:04.353Z,22.54
2022-08-24T15:43:32.670Z,22.33
2022-08-24T15:46:00.442Z,24.00
2022-08-24T15:48:28.412Z,24.37
2022-08-24T15:50:56.779Z,24.13
2022-08-24T15:53:39.141Z,23.72
2022-08-24T15:56:21.381Z,23.72
2022-08-24T15:58:50.399Z,24.47
2022-08-24T16:01:36.136Z,24.89
2022-08-24T16:04:15.795Z,24.47
2022-08-24T16:06:46.209Z,24.62
2022-08-24T16:09:19.745Z,24.57
2022-08-24T16:12:23.483Z,24.77
2022-08-24T16:15:11.021Z,25.45
2022-08-24T16:17:42.549Z,25.88
2022-08-24T16:20:17.905Z,25.04
2022-08-24T16:23:00.340Z,26.00
2022-08-24T16:25:50.495Z,25.78
2022-08-24T16:28:23.782Z,26.31
2022-08-24T16:30:57.687Z,26.84
2022-08-24T16:33:30.660Z,26.26
2022-08-24T16:35:59.398Z,26.05
2022-08-24T16:38:28.103Z,26.30
2022-08-24T16:40:58.615Z,26.08
2022-08-24T16:43:26.944Z,26.15
2022-08-24T16:45:55.367Z,26.38
2022-08-24T16:48:22.569Z,26.76
2022-08-24T16:50:51.154Z,26.84
2022-08-24T16:53:21.758Z,27.12
2022-08-24T16:55:49.040Z,27.52
2022-08-24T16:58:17.190Z,27.50
2022-08-24T17:00:46.057Z,27.96
2022-08-24T17:03:15.237Z,28.15
2022-08-24T17:05:43.871Z,28.34
2022-08-24T17:08:12.839Z,28.21
2022-08-24T17:10:40.405Z,28.30
2022-08-24T17:13:07.951Z,28.58
2022-08-24T17:15:36.389Z,28.92
2022-08-24T17:18:06.574Z,29.24
2022-08-24T17:20:34.594Z,29.82
2022-08-24T17:23:01.700Z,29.77
2022-08-24T17:25:30.343Z,29.47
2022-08-24T17:27:58.780Z,29.61
2022-08-24T17:30:30.081Z,30.28
2022-08-24T17:32:58.939Z,30.56
2022-08-24T17:35:26.161Z,30.52
2022-08-24T17:37:54.011Z,30.15
2022-08-24T17:40:24.326Z,30.65
2022-08-24T17:42:52.028Z,30.97
2022-08-24T17:45:21.417Z,31.16
2022-08-24T17:47:49.388Z,30.91
2022-08-24T17:50:19.359Z,31.30
2022-08-24T17:52:46.956Z,31.40
2022-08-24T17:55:17.201Z,31.64
2022-08-24T17:57:51.681Z,31.80
2022-08-24T18:00:18.976Z,31.94
2022-08-24T18:02:46.055Z,32.18
2022-08-24T18:05:14.669Z,31.62
2022-08-24T18:07:53.437Z,32.09
2022-08-24T18:10:25.616Z,32.32
2022-08-24T18:12:53.263Z,32.59
2022-08-24T18:15:21.301Z,32.41
2022-08-24T18:17:53.494Z,32.08
2022-08-24T18:20:25.705Z,32.54
2022-08-24T18:23:04.789Z,32.57
2022-08-24T18:25:36.232Z,32.92
2022-08-24T18:28:03.713Z,33.72
2022-08-24T18:30:32.365Z,33.13
2022-08-24T18:33:01.979Z,33.48
2022-08-24T18:35:30.910Z,33.08
2022-08-24T18:37:57.972Z,33.36
2022-08-24T18:40:26.873Z,33.25
2022-08-24T18:43:01.884Z,33.31
2022-08-24T18:45:31.935Z,33.55
2022-08-24T18:47:59.275Z,33.75
2022-08-24T18:50:29.047Z,34.27
2022-08-24T18:52:58.405Z,34.34
2022-08-24T18:55:26.873Z,33.98
2022-08-24T18:57:54.382Z,34.56
2022-08-24T19:00:21.667Z,34.83
2022-08-24T19:02:49.597Z,34.77
2022-08-24T19:05:22.938Z,35.11
2022-08-24T19:07:54.654Z,35.02
2022-08-24T19:10:24.953Z,34.99
2022-08-24T19:13:02.349Z,35.60
2022-08-24T19:15:39.454Z,36.09
2022-08-24T19:18:11.268Z,36.03
2022-08-24T19:20:47.935Z,36.45
2022-08-24T19:23:26.036Z,36.65
2022-08-24T19:25:54.742Z,36.90
2022-08-24T19:28:23.559Z,37.54
2022-08-24T19:30:54.507Z,36.93
2022-08-24T19:33:27.019Z,37.51
2022-08-24T19:35:54.645Z,37.61
2022-08-24T19:38:25.441Z,37.94
2022-08-24T19:40:55.544Z,38.06
2022-08-24T19:43:29.358Z,38.31
2022-08-24T19:46:06.421Z,38.76
2022-08-24T19:48:36.214Z,38.76
2022-08-24T19:51:05.889Z,39.35
2022-08-24T19:53:36.530Z,39.26
2022-08-24T19:56:05.482Z,39.73
2022-08-24T19:58:46.515Z,39.71
2022-08-24T20:01:19.415Z,39.85
2022-08-24T20:03:46.638Z,40.55
2022-08-24T20:06:15.025Z,40.72
2022-08-24T20:08:42.194Z,41.02
2022-08-24T20:11:10.086Z,40.78
2022-08-24T20:13:56.947Z,40.69
2022-08-24T20:16:29.027Z,40.66
2022-08-24T20:18:56.250Z,41.13
2022-08-24T20:21:31.739Z,41.06
2022-08-24T20:24:02.913Z,41.13
2022-08-24T20:26:35.080Z,41.16
2022-08-24T20:29:02.245Z,42.07
2022-08-24T20:31:29.663Z,42.07
2022-08-24T20:33:57.579Z,42.37
2022-08-24T20:36:34.688Z,42.24
2022-08-24T20:39:03.996Z,42.49
2022-08-24T20:41:32.016Z,42.50
2022-08-24T20:43:59.842Z,42.94
2022-08-24T20:46:27.940Z,42.96
2022-08-24T20:49:44.780Z,42.85
2022-08-24T20:52:07.776Z,43.12
2022-08-24T20:54:39.478Z,43.33
2022-08-24T20:57:14.914Z,43.17
2022-08-24T20:59:41.994Z,43.92
2022-08-24T21:02:09.203Z,43.84
2022-08-24T21:04:36.234Z,44.13
2022-08-24T21:07:03.511Z,43.99
2022-08-24T21:09:30.514Z,44.06
2022-08-24T21:11:57.512Z,44.29
2022-08-24T21:14:24.667Z,44.05
2022-08-24T21:16:59.049Z,43.74
2022-08-24T21:19:26.133Z,44.19
2022-08-24T21:21:53.212Z,44.52
2022-08-24T21:24:20.292Z,44.39
2022-08-24T21:26:47.645Z,44.54
2022-08-24T21:29:14.837Z,44.92
2022-08-24T21:32:01.832Z,44.70
2022-08-24T21:34:40.952Z,45.01
2022-08-24T21:37:13.572Z,44.87
2022-08-24T21:39:40.590Z,45.13
2022-08-24T21:42:08.538Z,45.30
2022-08-24T21:44:36.532Z,45.31
2022-08-24T21:47:05.942Z,45.35
2022-08-24T21:49:33.627Z,44.96
2022-08-24T21:52:01.052Z,44.88
2022-08-24T21:54:28.039Z,45.29
2022-08-24T21:56:55.273Z,45.17
2022-08-24T21:59:22.322Z,45.47
2022-08-24T22:01:49.583Z,45.15
2022-08-24T22:04:16.566Z,44.71
2022-08-24T22:09:10.438Z,44.99
2022-08-24T22:11:37.495Z,44.98
2022-08-24T22:14:04.602Z,44.64
2022-08-24T22:16:31.880Z,44.47
2022-08-24T22:19:01.002Z,44.48
2022-08-24T22:21:31.138Z,44.69
2022-08-24T22:24:03.602Z,44.70
2022-08-24T22:26:30.748Z,44.66
2022-08-24T22:28:59.315Z,44.86
2022-08-24T22:31:29.254Z,44.75
2022-08-24T22:33:58.618Z,44.74
2022-08-24T22:36:27.659Z,44.80
2022-08-24T22:38:56.303Z,44.96
2022-08-24T22:41:24.011Z,44.75
2022-08-24T22:44:10.053Z,44.82
2022-08-24T22:46:37.407Z,44.91
2022-08-24T22:49:06.044Z,44.79
2022-08-24T22:51:33.657Z,44.90
2022-08-24T22:54:01.045Z,45.07
2022-08-24T22:56:35.304Z,45.05
2022-08-24T22:59:02.835Z,45.64
2022-08-24T23:01:35.120Z,45.58
2022-08-24T23:04:06.399Z,45.70
2022-08-24T23:06:33.452Z,45.78
2022-08-24T23:09:00.811Z,46.16
2022-08-24T23:11:28.193Z,46.04
2022-08-24T23:13:57.733Z,46.23
2022-08-24T23:16:27.315Z,46.21
2022-08-24T23:19:13.983Z,46.44
2022-08-24T23:21:42.051Z,46.66
2022-08-24T23:24:10.575Z,46.01
2022-08-24T23:26:42.238Z,45.99
2022-08-24T23:29:11.321Z,46.48
2022-08-24T23:31:38.856Z,45.98
2022-08-24T23:34:08.064Z,45.91
2022-08-24T23:36:36.424Z,45.93
2022-08-24T23:39:05.900Z,45.88
2022-08-24T23:41:35.742Z,45.82
2022-08-24T23:44:10.576Z,45.69
2022-08-24T23:46:38.406Z,46.05
2022-08-24T23:49:06.622Z,46.10
2022-08-24T23:51:34.042Z,46.39
2022-08-24T23:54:01.134Z,46.27
2022-08-24T23:56:32.117Z,46.43
2022-08-24T23:59:01.707Z,46.49
